Shinkomaru No.18 — JD3625 — position and weather

sailwx.info

Track history (hours):
 
Tides and Currents Weather Stations Pressure Air Temp Water Temp Dewpoint Dewpoint Depression Visibility Wind Speed Wind Dir Waves Ship Positions

Shinkomaru No.18

Last reported at 2018-May-15 14:20 UTC. Time now 2018-May-21 12:36 UTC.
Position N 33°56' E 131°03'.

Length 82 m.

Type: Cargo ship. MMSI: 431005083.

Date/timePositionNaut miles runAvg speedWind from/ knotsBaromVisibWave heightAir tempDewpointWater temp
2018-May-15 14:20N 33°56' E 131°03'0 0.0
2018-May-15 14:00N 33°56' E 131°03'0 0.0
2018-May-15 13:30N 33°56' E 131°03'0 0.0
2018-May-15 13:00N 33°56' E 131°03'0 0.2
2018-May-15 12:30N 33°55' E 131°03'510.1
2018-May-15 12:01N 33°55' E 131°09'4 7.7
2018-May-15 11:31N 33°57' E 131°13'0 0.0
2018-May-15 11:00N 33°57' E 131°13'0 0.0
2018-May-15 10:30N 33°57' E 131°13'0 0.0
2018-May-15 10:00N 33°57' E 131°13'0 0.0
2018-May-15 09:30N 33°57' E 131°13'0 0.0
2018-May-15 09:00N 33°57' E 131°13'4 7.4
2018-May-15 08:30N 33°55' E 131°10'611.7
2018-May-15 08:00N 33°58' E 131°03'4 7.4
2018-May-15 07:30N 33°60' E 131°00'0 0.0
2018-May-15 07:00N 33°60' E 131°00'0 0.0
2018-May-15 06:30N 33°60' E 131°00'0 0.0
2018-May-15 06:00N 33°60' E 131°00'0 0.0
2018-May-15 05:30N 33°60' E 131°00'0 0.0
2018-May-15 05:00N 33°60' E 131°00'0 0.0
2018-May-15 04:30N 33°60' E 131°00'0 0.0
2018-May-15 04:00N 33°60' E 131°00'0 0.0
2018-May-15 03:30N 33°60' E 131°00'0 0.0
2018-May-15 03:00N 33°60' E 131°00'0 0.0
2018-May-15 02:30N 33°60' E 131°00'0 0.0
2018-May-15 02:00N 33°60' E 131°00'0 0.0
2018-May-15 01:30N 33°60' E 131°00'0 0.0
2018-May-15 01:00N 33°60' E 131°00'0 0.0
2018-May-15 00:30N 33°60' E 131°00'0 0.0
2018-May-15 00:00N 33°60' E 131°00'0 0.0
2018-May-14 23:30N 33°60' E 131°00'0 0.0
2018-May-14 23:00N 33°60' E 131°00'0 0.0
2018-May-14 22:30N 33°60' E 131°00'0 0.0
2018-May-14 22:00N 33°60' E 131°00'1 1.7
2018-May-14 21:30N 33°60' E 131°01'4 8.3
2018-May-14 21:00N 33°56' E 131°03'0 0.9
2018-May-14 20:30N 33°56' E 131°03'0 0.0
2018-May-14 20:00N 33°56' E 131°03'0 0.0
2018-May-14 19:30N 33°56' E 131°03'0 0.0
2018-May-14 19:00N 33°56' E 131°03'0 0.0
2018-May-14 18:30N 33°56' E 131°03'0 0.1
2018-May-14 18:00N 33°56' E 131°04'0 0.0
2018-May-14 17:30N 33°56' E 131°04'0 0.0
2018-May-14 17:00N 33°56' E 131°04'0 0.0
2018-May-14 16:30N 33°56' E 131°04'0 0.0
2018-May-14 16:00N 33°56' E 131°04'0 0.0
2018-May-14 15:30N 33°56' E 131°04'0 0.0
2018-May-14 15:00N 33°56' E 131°04'0 0.0
2018-May-14 14:30N 33°56' E 131°04'0 0.1
2018-May-14 14:00N 33°56' E 131°03'0 0.1
2018-May-14 13:30N 33°56' E 131°03'0 0.1
2018-May-14 13:00N 33°56' E 131°04'1 2.9
2018-May-14 12:30N 33°55' E 131°05'611.2
2018-May-14 12:01N 33°55' E 131°12'2 4.7
2018-May-14 11:30N 33°57' E 131°13'0 0.0
2018-May-14 11:00N 33°57' E 131°13'0 0.0
2018-May-14 10:30N 33°57' E 131°13'0 0.0
2018-May-14 10:00N 33°57' E 131°13'0 0.0
2018-May-14 09:30N 33°57' E 131°13'0 0.0
2018-May-14 09:00N 33°57' E 131°13'0 0.0
2018-May-14 08:30N 33°57' E 131°13'2 4.3
2018-May-14 08:00N 33°55' E 131°12'510.6
2018-May-14 07:30N 33°56' E 131°06'611.3
2018-May-14 07:00N 33°60' E 131°01'0 1.0
2018-May-14 06:30N 33°60' E 131°00'0 0.0
2018-May-14 06:00N 33°60' E 131°00'0 0.0
2018-May-14 05:30N 33°60' E 131°00'0 0.0
2018-May-14 05:00N 33°60' E 131°00'0 0.0
2018-May-14 04:30N 33°60' E 131°00'0 0.0
2018-May-14 04:00N 33°60' E 131°00'0 0.0
2018-May-14 03:30N 33°60' E 131°00'0 0.0
2018-May-14 03:00N 33°60' E 131°00'0 0.0
2018-May-14 02:30N 33°60' E 131°00'0 0.0
2018-May-14 02:00N 33°60' E 131°00'0 0.0
2018-May-14 01:30N 33°60' E 131°00'0 0.0
2018-May-14 01:00N 33°60' E 131°00'0 0.0
2018-May-14 00:30N 33°60' E 131°00'0 0.0
2018-May-14 00:00N 33°60' E 131°00'0 0.0
2018-May-13 23:30N 33°60' E 131°00'0 0.0
2018-May-13 23:00N 33°60' E 131°00'0 0.0
2018-May-13 22:30N 33°60' E 131°00'0 0.0
2018-May-13 22:00N 33°60' E 131°00'0 1.0
2018-May-13 21:30N 33°60' E 131°01'1 1.5
2018-May-13 21:00N 33°59' E 131°01'4 8.2
2018-May-13 20:29N 33°57' E 130°57'4 8.5
2018-May-13 20:00N 33°53' E 130°54'0 0.1
2018-May-13 19:30N 33°53' E 130°54'0 0.0
2018-May-13 19:00N 33°53' E 130°54'0 0.0
2018-May-13 18:30N 33°53' E 130°54'0 0.0
2018-May-13 18:00N 33°53' E 130°54'0 0.0
2018-May-13 17:30N 33°53' E 130°54'0 0.0
2018-May-13 17:00N 33°53' E 130°54'0 0.0
2018-May-13 16:30N 33°53' E 130°54'0 0.0
2018-May-13 16:00N 33°53' E 130°54'0 0.0
2018-May-13 15:30N 33°53' E 130°54'0 0.0
2018-May-13 15:00N 33°53' E 130°54'0 0.0
2018-May-13 14:30N 33°53' E 130°54'0 0.0
2018-May-13 14:00N 33°53' E 130°54'0 0.0
2018-May-13 13:30N 33°53' E 130°54'0 0.0
2018-May-13 13:00N 33°53' E 130°54'0 0.0
2018-May-13 12:30N 33°53' E 130°54'0 0.0
2018-May-13 12:00N 33°53' E 130°54'0 0.0
2018-May-13 11:29N 33°53' E 130°54'0 0.0
2018-May-13 11:00N 33°53' E 130°54'0 0.0
2018-May-13 10:30N 33°53' E 130°54'0 0.0
2018-May-13 10:00N 33°53' E 130°54'0 0.0
2018-May-13 09:30N 33°53' E 130°54'0 0.0
2018-May-13 09:00N 33°53' E 130°54'0 0.0
2018-May-13 08:30N 33°53' E 130°54'0 0.0
2018-May-13 08:00N 33°53' E 130°54'0 0.0
2018-May-13 07:30N 33°53' E 130°54'0 0.0
2018-May-13 07:00N 33°53' E 130°54'0 0.0
2018-May-13 06:30N 33°53' E 130°54'0 0.0
2018-May-13 06:00N 33°53' E 130°54'0 0.0
2018-May-13 05:30N 33°53' E 130°54'0 0.0
2018-May-13 05:00N 33°53' E 130°54'0 0.0
2018-May-13 04:30N 33°53' E 130°54'0 0.0
2018-May-13 04:00N 33°53' E 130°54'0 0.0
2018-May-13 03:30N 33°53' E 130°54'0 0.0
2018-May-13 03:00N 33°53' E 130°54'0 0.0
2018-May-13 02:30N 33°53' E 130°54'0 0.0
2018-May-13 02:00N 33°53' E 130°54'0 0.0
2018-May-13 01:30N 33°53' E 130°54'0 0.1
2018-May-13 01:00N 33°53' E 130°54'0 0.1
2018-May-13 00:30N 33°53' E 130°54'1 1.1
2018-May-13 00:00N 33°54' E 130°54'611.3
2018-May-12 23:30N 33°58' E 130°58'511.0
2018-May-12 23:00N 33°57' E 131°05'0 0.2
2018-May-12 22:30N 33°57' E 131°05'0 0.0
2018-May-12 22:00N 33°57' E 131°05'0 0.0
2018-May-12 21:30N 33°57' E 131°05'0 0.0
2018-May-12 20:59N 33°57' E 131°05'0 0.0
2018-May-12 20:30N 33°57' E 131°05'0 0.1
2018-May-12 20:00N 33°57' E 131°05'0 0.0
2018-May-12 19:30N 33°57' E 131°05'4 7.8
2018-May-12 19:00N 33°55' E 131°08'612.4
2018-May-12 18:30N 33°52' E 131°15'612.0
2018-May-12 18:00N 33°53' E 131°22'611.8
2018-May-12 17:30N 33°53' E 131°29'611.5
2018-May-12 17:00N 33°54' E 131°36'611.3
2018-May-12 16:30N 33°54' E 131°43'511.1
2018-May-12 16:01N 33°55' E 131°50'5 8.9
2018-May-12 15:28N 33°59' E 131°53'0 0.2
2018-May-12 15:00N 33°59' E 131°53'0 0.0
2018-May-12 14:30N 33°59' E 131°53'0 0.0
2018-May-12 14:00N 33°59' E 131°53'0 0.0
2018-May-12 12:40N 33°59' E 131°53'0 2.6
2018-May-12 12:30N 33°58' E 131°53'711.9
2018-May-12 11:57N 33°53' E 131°57'612.6
2018-May-12 11:30N 33°48' E 132°00'5 9.7
2018-May-12 10:59N 33°48' E 132°06'611.7
2018-May-12 10:30N 33°50' E 132°13'611.5
2018-May-12 10:00N 33°50' E 132°20'610.8
2018-May-12 09:24N 33°52' E 132°27'511.4
2018-May-12 08:59N 33°53' E 132°33'511.1
2018-May-12 08:30N 33°56' E 132°39'510.4
2018-May-12 08:00N 33°59' E 132°43'7011.0
2018-May-12 01:37N 34°26' E 134°01'710.5
2018-May-12 00:55N 34°32' E 134°08'811.6
2018-May-12 00:15N 34°34' E 134°16'312.2
2018-May-11 23:58N 34°35' E 134°21'612.5
2018-May-11 23:30N 34°35' E 134°28'612.7
2018-May-11 23:00N 34°36' E 134°35'612.8
2018-May-11 22:30N 34°37' E 134°43'612.7
2018-May-11 22:00N 34°37' E 134°51'714.5
2018-May-11 21:30N 34°38' E 134°59'713.5
2018-May-11 21:01N 34°36' E 135°07'612.6
2018-May-11 20:31N 34°36' E 135°15'612.3
2018-May-11 20:01N 34°36' E 135°22'4 8.0
2018-May-11 19:30N 34°35' E 135°27'0 0.0
2018-May-11 18:59N 34°35' E 135°27'0 0.0
2018-May-11 18:31N 34°35' E 135°27'0 0.0
2018-May-11 18:00N 34°35' E 135°27'0 0.0
2018-May-11 17:29N 34°35' E 135°27'0 0.0
2018-May-11 17:00N 34°35' E 135°27'0 0.0
2018-May-11 16:30N 34°35' E 135°27'0 0.0
2018-May-11 16:00N 34°35' E 135°27'0 0.0
2018-May-11 15:30N 34°35' E 135°27'0 0.0
2018-May-11 15:00N 34°35' E 135°27'0 0.0
2018-May-11 14:30N 34°35' E 135°27'0 0.0
2018-May-11 14:01N 34°35' E 135°27'0 0.0
2018-May-11 13:30N 34°35' E 135°27'0 0.0
2018-May-11 13:01N 34°35' E 135°27'0 0.0
2018-May-11 12:30N 34°35' E 135°27'0 0.0
2018-May-11 12:00N 34°35' E 135°27'0 0.0
2018-May-11 11:31N 34°35' E 135°27'0 0.0
2018-May-11 11:01N 34°35' E 135°27'0 0.0
2018-May-11 10:30N 34°35' E 135°27'0 0.0
2018-May-11 10:00N 34°35' E 135°27'0 0.0
2018-May-11 09:30N 34°35' E 135°27'0 0.0
2018-May-11 09:00N 34°35' E 135°27'0 0.0
2018-May-11 08:29N 34°35' E 135°27'0 0.0
2018-May-11 08:00N 34°35' E 135°27'0 0.0
2018-May-11 07:30N 34°35' E 135°27'0 0.1
2018-May-11 07:00N 34°35' E 135°27'0 0.0
2018-May-11 06:30N 34°35' E 135°27'0 0.0
2018-May-11 06:00N 34°35' E 135°27'0 0.0
2018-May-11 05:30N 34°35' E 135°27'0 0.0
2018-May-11 05:00N 34°35' E 135°27'0 0.0
2018-May-11 04:30N 34°35' E 135°27'0 0.0
2018-May-11 04:00N 34°35' E 135°27'0 0.0
2018-May-11 03:30N 34°35' E 135°27'0 0.0
2018-May-11 02:58N 34°35' E 135°27'0 0.0
2018-May-11 02:30N 34°35' E 135°27'0 0.0
2018-May-11 02:00N 34°35' E 135°27'0 0.0
2018-May-11 01:30N 34°35' E 135°27'0 0.0
2018-May-11 01:00N 34°35' E 135°27'3 6.7
2018-May-11 00:30N 34°36' E 135°23'510.5
2018-May-11 00:00N 34°33' E 135°18'511.1
2018-May-10 23:31N 34°29' E 135°14'611.2
2018-May-10 23:00N 34°25' E 135°09'611.3
2018-May-10 22:31N 34°20' E 135°06'510.2
2018-May-10 22:00N 34°15' E 135°04'3 6.1
2018-May-10 21:31N 34°15' E 135°07'0 0.0
2018-May-10 21:00N 34°15' E 135°07'0 0.0
2018-May-10 20:30N 34°15' E 135°07'0 0.0
2018-May-10 20:00N 34°15' E 135°07'0 0.0
2018-May-10 19:30N 34°15' E 135°07'0 0.0
2018-May-10 19:01N 34°15' E 135°07'0 0.0
2018-May-10 18:31N 34°15' E 135°07'0 0.0
2018-May-10 18:00N 34°15' E 135°07'0 0.0
2018-May-10 17:30N 34°15' E 135°07'0 0.0
2018-May-10 17:00N 34°15' E 135°07'0 0.0
2018-May-10 16:30N 34°15' E 135°07'0 0.0
2018-May-10 16:00N 34°15' E 135°07'0 0.0
2018-May-10 15:30N 34°15' E 135°07'0 0.0
2018-May-10 15:00N 34°15' E 135°07'0 0.0
2018-May-10 14:31N 34°15' E 135°07'0 0.0
2018-May-10 14:00N 34°15' E 135°07'0 0.0
2018-May-10 13:31N 34°15' E 135°07'0 0.0
2018-May-10 13:00N 34°15' E 135°07'0 0.0
2018-May-10 12:30N 34°15' E 135°07'0 0.0
2018-May-10 12:00N 34°15' E 135°07'0 0.0
2018-May-10 11:31N 34°15' E 135°07'1 2.2
2018-May-10 11:00N 34°14' E 135°06'3 5.5
2018-May-10 10:30N 34°13' E 135°09'0 0.0
2018-May-10 10:00N 34°13' E 135°09'0 0.0
2018-May-10 09:31N 34°13' E 135°09'0 0.0
2018-May-10 09:00N 34°13' E 135°09'0 0.0
2018-May-10 08:30N 34°13' E 135°09'0 0.0
2018-May-10 08:00N 34°13' E 135°09'0 0.0
2018-May-10 07:31N 34°13' E 135°09'0 0.0
2018-May-10 07:00N 34°13' E 135°09'0 0.0
2018-May-10 06:30N 34°13' E 135°09'0 0.0
2018-May-10 06:00N 34°13' E 135°09'0 0.0
2018-May-10 05:31N 34°13' E 135°09'0 0.0
2018-May-10 05:01N 34°13' E 135°09'0 0.0
2018-May-10 04:30N 34°13' E 135°09'0 0.0
2018-May-10 04:01N 34°13' E 135°09'0 0.0
2018-May-10 03:31N 34°13' E 135°09'0 0.0
2018-May-10 03:01N 34°13' E 135°09'0 0.0
2018-May-10 02:30N 34°13' E 135°09'0 0.0
2018-May-10 02:00N 34°13' E 135°09'0 0.0
2018-May-10 01:31N 34°13' E 135°09'0 0.0
2018-May-10 01:00N 34°13' E 135°09'0 0.0
2018-May-10 00:31N 34°13' E 135°09'0 0.0
2018-May-10 00:01N 34°13' E 135°09'0 0.0
2018-May-09 23:30N 34°13' E 135°09'0 0.0
2018-May-09 22:59N 34°13' E 135°09'0 0.0
2018-May-09 22:30N 34°13' E 135°09'0 0.0
2018-May-09 22:01N 34°13' E 135°09'0 0.0
2018-May-09 21:31N 34°13' E 135°09'0 0.0
2018-May-09 21:00N 34°13' E 135°09'0 0.0
2018-May-09 20:31N 34°13' E 135°09'0 0.0
2018-May-09 20:00N 34°13' E 135°09'0 0.0
2018-May-09 19:30N 34°13' E 135°09'0 0.0
2018-May-09 19:00N 34°13' E 135°09'0 0.0
2018-May-09 18:31N 34°13' E 135°09'0 0.0
2018-May-09 18:00N 34°13' E 135°09'0 0.0
2018-May-09 17:30N 34°13' E 135°09'0 0.0
2018-May-09 17:01N 34°13' E 135°09'0 0.0
2018-May-09 16:30N 34°13' E 135°09'0 0.0
2018-May-09 16:00N 34°13' E 135°09'0 0.0
2018-May-09 15:30N 34°13' E 135°09'0 0.0
2018-May-09 15:00N 34°13' E 135°09'0 0.0
2018-May-09 14:31N 34°13' E 135°09'0 0.0
2018-May-09 14:00N 34°13' E 135°09'0 0.0
2018-May-09 13:30N 34°13' E 135°09'0 0.0
2018-May-09 13:00N 34°13' E 135°09'0 0.0
2018-May-09 12:31N 34°13' E 135°09'0 0.0
2018-May-09 12:00N 34°13' E 135°09'0 0.0
2018-May-09 11:31N 34°13' E 135°09'0 0.0
2018-May-09 11:00N 34°13' E 135°09'0 0.0
2018-May-09 10:31N 34°13' E 135°09'0 0.0
2018-May-09 10:01N 34°13' E 135°09'0 0.0
2018-May-09 09:29N 34°13' E 135°09'0 0.0
2018-May-09 09:00N 34°13' E 135°09'0 0.0
2018-May-09 08:29N 34°13' E 135°09'0 0.0
2018-May-09 08:00N 34°13' E 135°09'0 0.0
2018-May-09 07:30N 34°13' E 135°09'0 0.0
2018-May-09 07:00N 34°13' E 135°09'0 0.0
2018-May-09 06:30N 34°13' E 135°09'0 0.0
2018-May-09 06:00N 34°13' E 135°09'0 0.0
2018-May-09 05:30N 34°13' E 135°09'0 0.0
2018-May-09 05:00N 34°13' E 135°09'0 0.0
2018-May-09 04:30N 34°13' E 135°09'0 0.0
2018-May-09 04:00N 34°13' E 135°09'0 0.0
2018-May-09 03:31N 34°13' E 135°09'0 0.0
2018-May-09 03:00N 34°13' E 135°09'0 0.0
2018-May-09 02:29N 34°13' E 135°09'0 0.0
2018-May-09 02:00N 34°13' E 135°09'1 2.9
2018-May-09 01:30N 34°13' E 135°07'4 8.6
2018-May-09 01:01N 34°16' E 135°03'611.6
2018-May-09 00:31N 34°22' E 135°03'612.0
2018-May-09 00:00N 34°28' E 135°03'612.8
2018-May-08 23:30N 34°34' E 135°03'612.0
2018-May-08 23:00N 34°37' E 134°57'713.3
2018-May-08 22:30N 34°40' E 134°49'712.8
2018-May-08 22:00N 34°43' E 134°42'510.7
2018-May-08 21:30N 34°47' E 134°38'0 0.2
2018-May-08 19:33N 34°47' E 134°38'0 0.0
2018-May-08 19:29N 34°47' E 134°38'0 0.0
2018-May-08 18:57N 34°47' E 134°38'0 0.0
2018-May-08 18:30N 34°47' E 134°38'0 0.0
2018-May-08 18:00N 34°47' E 134°38'0 0.0
2018-May-08 17:23N 34°47' E 134°38'0 0.0
2018-May-08 16:58N 34°47' E 134°38'0 0.0
2018-May-08 16:29N 34°47' E 134°38'0 0.0
2018-May-08 15:57N 34°47' E 134°38'0 0.0
2018-May-08 15:00N 34°47' E 134°38'0 0.0
2018-May-08 13:22N 34°47' E 134°38'0 0.0
2018-May-08 13:00N 34°47' E 134°38'0 0.0
2018-May-08 12:27N 34°47' E 134°38'0 0.0
2018-May-08 11:59N 34°47' E 134°38'0 0.0
2018-May-08 11:12N 34°47' E 134°38'1 4.6
2018-May-08 10:59N 34°46' E 134°38'611.6
2018-May-08 10:29N 34°40' E 134°38'511.2
2018-May-08 10:00N 34°35' E 134°35'611.7
2018-May-08 09:29N 34°30' E 134°30'611.4
2018-May-08 09:00N 34°26' E 134°27'1211.0
2018-May-08 07:54N 34°24' E 134°12'7510.1
2018-May-08 00:29N 34°01' E 132°46'510.2
2018-May-08 00:00N 33°57' E 132°43'610.1
2018-May-07 23:27N 33°54' E 132°38'3910.4
2018-May-07 19:43N 33°30' E 132°01'211.1
2018-May-07 19:30N 33°28' E 131°58'611.4
2018-May-07 18:59N 33°25' E 131°53'611.3
2018-May-07 18:27N 33°21' E 131°47'511.3
2018-May-07 18:00N 33°18' E 131°42'3 5.7
2018-May-07 17:30N 33°16' E 131°40'0 0.0
2018-May-07 17:00N 33°16' E 131°40'0 0.0
2018-May-07 16:30N 33°16' E 131°40'0 0.0
2018-May-07 15:58N 33°16' E 131°40'0 0.0
2018-May-07 15:30N 33°16' E 131°40'0 0.0
2018-May-07 15:00N 33°16' E 131°40'0 0.0
2018-May-07 14:30N 33°16' E 131°40'0 0.0
2018-May-07 13:59N 33°16' E 131°40'0 0.0
2018-May-07 13:30N 33°16' E 131°40'0 0.0
2018-May-07 12:57N 33°16' E 131°40'0 0.0
2018-May-07 12:30N 33°16' E 131°40'0 0.0
2018-May-07 12:00N 33°16' E 131°40'0 0.0
2018-May-07 11:30N 33°16' E 131°40'0 0.0
2018-May-07 11:00N 33°16' E 131°40'0 0.0
2018-May-07 10:30N 33°16' E 131°40'0 0.0
2018-May-07 10:00N 33°16' E 131°40'0 0.0
2018-May-07 09:30N 33°16' E 131°40'0 0.0
2018-May-07 09:00N 33°16' E 131°40'0 0.0
2018-May-07 08:30N 33°16' E 131°40'0 0.0
2018-May-07 08:00N 33°16' E 131°40'0 0.0
2018-May-07 07:30N 33°16' E 131°40'0 0.0
2018-May-07 07:00N 33°16' E 131°40'0 0.0
2018-May-07 06:29N 33°16' E 131°40'0 0.0
2018-May-07 06:00N 33°16' E 131°40'0 0.0
2018-May-07 05:29N 33°16' E 131°40'0 0.0
2018-May-07 05:00N 33°16' E 131°40'0 0.0
2018-May-07 04:30N 33°16' E 131°40'0 0.0
2018-May-07 03:58N 33°16' E 131°40'0 0.0
2018-May-07 03:30N 33°16' E 131°40'0 0.0
2018-May-07 02:58N 33°16' E 131°40'0 0.0
2018-May-07 02:30N 33°16' E 131°40'5 8.4
2018-May-07 01:52N 33°21' E 131°43'512.5
2018-May-07 01:27N 33°25' E 131°46'511.8
2018-May-07 01:00N 33°31' E 131°47'611.2
2018-May-07 00:30N 33°36' E 131°45'611.7
2018-May-06 23:59N 33°41' E 131°41'611.9
2018-May-06 23:30N 33°43' E 131°34'612.0
2018-May-06 23:00N 33°45' E 131°28'612.4
2018-May-06 22:30N 33°48' E 131°21'612.0
2018-May-06 22:00N 33°50' E 131°14'611.8
2018-May-06 21:30N 33°53' E 131°08'611.8
2018-May-06 21:00N 33°57' E 131°03'4 8.9
2018-May-06 20:30N 33°57' E 130°57'4 8.2
2018-May-06 20:00N 33°55' E 130°53'2 3.9
2018-May-06 19:30N 33°55' E 130°51'0 0.0
2018-May-06 19:00N 33°55' E 130°51'0 0.0
2018-May-06 18:30N 33°55' E 130°51'0 0.0
2018-May-06 18:00N 33°55' E 130°51'0 0.0
2018-May-06 17:30N 33°55' E 130°51'0 0.0
2018-May-06 17:00N 33°55' E 130°51'0 0.0
2018-May-06 16:30N 33°55' E 130°51'0 0.0
2018-May-06 16:00N 33°55' E 130°51'0 0.0
2018-May-06 15:30N 33°55' E 130°51'0 0.0
2018-May-06 15:00N 33°55' E 130°51'0 0.0
2018-May-06 14:30N 33°55' E 130°51'0 0.0
2018-May-06 14:00N 33°55' E 130°51'0 0.0
2018-May-06 13:30N 33°55' E 130°51'2 3.5
2018-May-06 13:00N 33°56' E 130°53'0 0.7
2018-May-06 12:30N 33°56' E 130°54'0 0.0
2018-May-06 12:00N 33°56' E 130°54'0 0.0
2018-May-06 11:30N 33°56' E 130°54'0 0.0
2018-May-06 11:00N 33°56' E 130°54'0 0.0
2018-May-06 10:30N 33°56' E 130°54'0 0.0
2018-May-06 10:00N 33°56' E 130°54'0 0.0
2018-May-06 09:30N 33°56' E 130°54'0 0.0
2018-May-06 09:00N 33°56' E 130°54'0 0.0
2018-May-06 08:30N 33°56' E 130°54'0 0.0
2018-May-06 08:00N 33°56' E 130°54'0 0.1
2018-May-06 07:30N 33°56' E 130°53'0 0.1
2018-May-06 07:00N 33°56' E 130°53'0 0.1
2018-May-06 06:30N 33°56' E 130°53'0 0.0
2018-May-06 06:00N 33°56' E 130°53'0 0.0
2018-May-06 05:30N 33°56' E 130°53'0 0.0
2018-May-06 05:00N 33°56' E 130°53'0 0.1
2018-May-06 04:30N 33°56' E 130°53'0 0.0
2018-May-06 04:00N 33°56' E 130°53'0 0.0
2018-May-06 03:30N 33°56' E 130°53'0 0.0
2018-May-06 02:59N 33°56' E 130°53'2 4.7
2018-May-06 02:30N 33°56' E 130°56'510.2
2018-May-06 02:00N 33°58' E 131°02'612.2
2018-May-06 01:30N 33°55' E 131°08'612.0
2018-May-06 01:00N 33°52' E 131°14'612.1
2018-May-06 00:30N 33°51' E 131°22'612.2
2018-May-06 00:00N 33°50' E 131°29'612.2
2018-May-05 23:30N 33°49' E 131°36'612.2
2018-May-05 23:00N 33°48' E 131°43'1411.9
2018-May-05 21:47N 33°46' E 132°00'312.4
2018-May-05 21:30N 33°46' E 132°04'612.7
2018-May-05 21:00N 33°50' E 132°11'712.3
2018-May-05 20:28N 33°50' E 132°19'1012.5
2018-May-05 19:41N 33°52' E 132°31'212.5
2018-May-05 19:30N 33°53' E 132°33'712.3
2018-May-05 18:58N 33°56' E 132°40'511.7
2018-May-05 18:30N 34°00' E 132°45'  
Track history (hours):
 
Tides and Currents Weather Stations Pressure Air Temp Water Temp Dewpoint Dewpoint Depression Visibility Wind Speed Wind Dir Waves Ship Positions

Shinkomaru No.18

Last reported at 2018-May-15 14:20 UTC. Time now 2018-May-21 12:36 UTC.
Position N 33°56' E 131°03'.

Length 82 m.

Type: Cargo ship. MMSI: 431005083.

Date/timePositionNaut miles runAvg speedWind from/ knotsBaromVisibWave heightAir tempDewpointWater temp
2018-May-15 14:20N 33°56' E 131°03'0 0.0
2018-May-15 14:00N 33°56' E 131°03'0 0.0
2018-May-15 13:30N 33°56' E 131°03'0 0.0
2018-May-15 13:00N 33°56' E 131°03'0 0.2
2018-May-15 12:30N 33°55' E 131°03'510.1
2018-May-15 12:01N 33°55' E 131°09'4 7.7
2018-May-15 11:31N 33°57' E 131°13'0 0.0
2018-May-15 11:00N 33°57' E 131°13'0 0.0
2018-May-15 10:30N 33°57' E 131°13'0 0.0
2018-May-15 10:00N 33°57' E 131°13'0 0.0
2018-May-15 09:30N 33°57' E 131°13'0 0.0
2018-May-15 09:00N 33°57' E 131°13'4 7.4
2018-May-15 08:30N 33°55' E 131°10'611.7
2018-May-15 08:00N 33°58' E 131°03'4 7.4
2018-May-15 07:30N 33°60' E 131°00'0 0.0
2018-May-15 07:00N 33°60' E 131°00'0 0.0
2018-May-15 06:30N 33°60' E 131°00'0 0.0
2018-May-15 06:00N 33°60' E 131°00'0 0.0
2018-May-15 05:30N 33°60' E 131°00'0 0.0
2018-May-15 05:00N 33°60' E 131°00'0 0.0
2018-May-15 04:30N 33°60' E 131°00'0 0.0
2018-May-15 04:00N 33°60' E 131°00'0 0.0
2018-May-15 03:30N 33°60' E 131°00'0 0.0
2018-May-15 03:00N 33°60' E 131°00'0 0.0
2018-May-15 02:30N 33°60' E 131°00'0 0.0
2018-May-15 02:00N 33°60' E 131°00'0 0.0
2018-May-15 01:30N 33°60' E 131°00'0 0.0
2018-May-15 01:00N 33°60' E 131°00'0 0.0
2018-May-15 00:30N 33°60' E 131°00'0 0.0
2018-May-15 00:00N 33°60' E 131°00'0 0.0
2018-May-14 23:30N 33°60' E 131°00'0 0.0
2018-May-14 23:00N 33°60' E 131°00'0 0.0
2018-May-14 22:30N 33°60' E 131°00'0 0.0
2018-May-14 22:00N 33°60' E 131°00'1 1.7
2018-May-14 21:30N 33°60' E 131°01'4 8.3
2018-May-14 21:00N 33°56' E 131°03'0 0.9
2018-May-14 20:30N 33°56' E 131°03'0 0.0
2018-May-14 20:00N 33°56' E 131°03'0 0.0
2018-May-14 19:30N 33°56' E 131°03'0 0.0
2018-May-14 19:00N 33°56' E 131°03'0 0.0
2018-May-14 18:30N 33°56' E 131°03'0 0.1
2018-May-14 18:00N 33°56' E 131°04'0 0.0
2018-May-14 17:30N 33°56' E 131°04'0 0.0
2018-May-14 17:00N 33°56' E 131°04'0 0.0
2018-May-14 16:30N 33°56' E 131°04'0 0.0
2018-May-14 16:00N 33°56' E 131°04'0 0.0
2018-May-14 15:30N 33°56' E 131°04'0 0.0
2018-May-14 15:00N 33°56' E 131°04'0 0.0
2018-May-14 14:30N 33°56' E 131°04'0 0.1
2018-May-14 14:00N 33°56' E 131°03'0 0.1
2018-May-14 13:30N 33°56' E 131°03'0 0.1
2018-May-14 13:00N 33°56' E 131°04'1 2.9
2018-May-14 12:30N 33°55' E 131°05'611.2
2018-May-14 12:01N 33°55' E 131°12'2 4.7
2018-May-14 11:30N 33°57' E 131°13'0 0.0
2018-May-14 11:00N 33°57' E 131°13'0 0.0
2018-May-14 10:30N 33°57' E 131°13'0 0.0
2018-May-14 10:00N 33°57' E 131°13'0 0.0
2018-May-14 09:30N 33°57' E 131°13'0 0.0
2018-May-14 09:00N 33°57' E 131°13'0 0.0
2018-May-14 08:30N 33°57' E 131°13'2 4.3
2018-May-14 08:00N 33°55' E 131°12'510.6
2018-May-14 07:30N 33°56' E 131°06'611.3
2018-May-14 07:00N 33°60' E 131°01'0 1.0
2018-May-14 06:30N 33°60' E 131°00'0 0.0
2018-May-14 06:00N 33°60' E 131°00'0 0.0
2018-May-14 05:30N 33°60' E 131°00'0 0.0
2018-May-14 05:00N 33°60' E 131°00'0 0.0
2018-May-14 04:30N 33°60' E 131°00'0 0.0
2018-May-14 04:00N 33°60' E 131°00'0 0.0
2018-May-14 03:30N 33°60' E 131°00'0 0.0
2018-May-14 03:00N 33°60' E 131°00'0 0.0
2018-May-14 02:30N 33°60' E 131°00'0 0.0
2018-May-14 02:00N 33°60' E 131°00'0 0.0
2018-May-14 01:30N 33°60' E 131°00'0 0.0
2018-May-14 01:00N 33°60' E 131°00'0 0.0
2018-May-14 00:30N 33°60' E 131°00'0 0.0
2018-May-14 00:00N 33°60' E 131°00'0 0.0
2018-May-13 23:30N 33°60' E 131°00'0 0.0
2018-May-13 23:00N 33°60' E 131°00'0 0.0
2018-May-13 22:30N 33°60' E 131°00'0 0.0
2018-May-13 22:00N 33°60' E 131°00'0 1.0
2018-May-13 21:30N 33°60' E 131°01'1 1.5
2018-May-13 21:00N 33°59' E 131°01'4 8.2
2018-May-13 20:29N 33°57' E 130°57'4 8.5
2018-May-13 20:00N 33°53' E 130°54'0 0.1
2018-May-13 19:30N 33°53' E 130°54'0 0.0
2018-May-13 19:00N 33°53' E 130°54'0 0.0
2018-May-13 18:30N 33°53' E 130°54'0 0.0
2018-May-13 18:00N 33°53' E 130°54'0 0.0
2018-May-13 17:30N 33°53' E 130°54'0 0.0
2018-May-13 17:00N 33°53' E 130°54'0 0.0
2018-May-13 16:30N 33°53' E 130°54'0 0.0
2018-May-13 16:00N 33°53' E 130°54'0 0.0
2018-May-13 15:30N 33°53' E 130°54'0 0.0
2018-May-13 15:00N 33°53' E 130°54'0 0.0
2018-May-13 14:30N 33°53' E 130°54'0 0.0
2018-May-13 14:00N 33°53' E 130°54'0 0.0
2018-May-13 13:30N 33°53' E 130°54'0 0.0
2018-May-13 13:00N 33°53' E 130°54'0 0.0
2018-May-13 12:30N 33°53' E 130°54'0 0.0
2018-May-13 12:00N 33°53' E 130°54'0 0.0
2018-May-13 11:29N 33°53' E 130°54'0 0.0
2018-May-13 11:00N 33°53' E 130°54'0 0.0
2018-May-13 10:30N 33°53' E 130°54'0 0.0
2018-May-13 10:00N 33°53' E 130°54'0 0.0
2018-May-13 09:30N 33°53' E 130°54'0 0.0
2018-May-13 09:00N 33°53' E 130°54'0 0.0
2018-May-13 08:30N 33°53' E 130°54'0 0.0
2018-May-13 08:00N 33°53' E 130°54'0 0.0
2018-May-13 07:30N 33°53' E 130°54'0 0.0
2018-May-13 07:00N 33°53' E 130°54'0 0.0
2018-May-13 06:30N 33°53' E 130°54'0 0.0
2018-May-13 06:00N 33°53' E 130°54'0 0.0
2018-May-13 05:30N 33°53' E 130°54'0 0.0
2018-May-13 05:00N 33°53' E 130°54'0 0.0
2018-May-13 04:30N 33°53' E 130°54'0 0.0
2018-May-13 04:00N 33°53' E 130°54'0 0.0
2018-May-13 03:30N 33°53' E 130°54'0 0.0
2018-May-13 03:00N 33°53' E 130°54'0 0.0
2018-May-13 02:30N 33°53' E 130°54'0 0.0
2018-May-13 02:00N 33°53' E 130°54'0 0.0
2018-May-13 01:30N 33°53' E 130°54'0 0.1
2018-May-13 01:00N 33°53' E 130°54'0 0.1
2018-May-13 00:30N 33°53' E 130°54'1 1.1
2018-May-13 00:00N 33°54' E 130°54'611.3
2018-May-12 23:30N 33°58' E 130°58'511.0
2018-May-12 23:00N 33°57' E 131°05'0 0.2
2018-May-12 22:30N 33°57' E 131°05'0 0.0
2018-May-12 22:00N 33°57' E 131°05'0 0.0
2018-May-12 21:30N 33°57' E 131°05'0 0.0
2018-May-12 20:59N 33°57' E 131°05'0 0.0
2018-May-12 20:30N 33°57' E 131°05'0 0.1
2018-May-12 20:00N 33°57' E 131°05'0 0.0
2018-May-12 19:30N 33°57' E 131°05'4 7.8
2018-May-12 19:00N 33°55' E 131°08'612.4
2018-May-12 18:30N 33°52' E 131°15'612.0
2018-May-12 18:00N 33°53' E 131°22'611.8
2018-May-12 17:30N 33°53' E 131°29'611.5
2018-May-12 17:00N 33°54' E 131°36'611.3
2018-May-12 16:30N 33°54' E 131°43'511.1
2018-May-12 16:01N 33°55' E 131°50'5 8.9
2018-May-12 15:28N 33°59' E 131°53'0 0.2
2018-May-12 15:00N 33°59' E 131°53'0 0.0
2018-May-12 14:30N 33°59' E 131°53'0 0.0
2018-May-12 14:00N 33°59' E 131°53'0 0.0
2018-May-12 12:40N 33°59' E 131°53'0 2.6
2018-May-12 12:30N 33°58' E 131°53'711.9
2018-May-12 11:57N 33°53' E 131°57'612.6
2018-May-12 11:30N 33°48' E 132°00'5 9.7
2018-May-12 10:59N 33°48' E 132°06'611.7
2018-May-12 10:30N 33°50' E 132°13'611.5
2018-May-12 10:00N 33°50' E 132°20'610.8
2018-May-12 09:24N 33°52' E 132°27'511.4
2018-May-12 08:59N 33°53' E 132°33'511.1
2018-May-12 08:30N 33°56' E 132°39'510.4
2018-May-12 08:00N 33°59' E 132°43'7011.0
2018-May-12 01:37N 34°26' E 134°01'710.5
2018-May-12 00:55N 34°32' E 134°08'811.6
2018-May-12 00:15N 34°34' E 134°16'312.2
2018-May-11 23:58N 34°35' E 134°21'612.5
2018-May-11 23:30N 34°35' E 134°28'612.7
2018-May-11 23:00N 34°36' E 134°35'612.8
2018-May-11 22:30N 34°37' E 134°43'612.7
2018-May-11 22:00N 34°37' E 134°51'714.5
2018-May-11 21:30N 34°38' E 134°59'713.5
2018-May-11 21:01N 34°36' E 135°07'612.6
2018-May-11 20:31N 34°36' E 135°15'612.3
2018-May-11 20:01N 34°36' E 135°22'4 8.0
2018-May-11 19:30N 34°35' E 135°27'0 0.0
2018-May-11 18:59N 34°35' E 135°27'0 0.0
2018-May-11 18:31N 34°35' E 135°27'0 0.0
2018-May-11 18:00N 34°35' E 135°27'0 0.0
2018-May-11 17:29N 34°35' E 135°27'0 0.0
2018-May-11 17:00N 34°35' E 135°27'0 0.0
2018-May-11 16:30N 34°35' E 135°27'0 0.0
2018-May-11 16:00N 34°35' E 135°27'0 0.0
2018-May-11 15:30N 34°35' E 135°27'0 0.0
2018-May-11 15:00N 34°35' E 135°27'0 0.0
2018-May-11 14:30N 34°35' E 135°27'0 0.0
2018-May-11 14:01N 34°35' E 135°27'0 0.0
2018-May-11 13:30N 34°35' E 135°27'0 0.0
2018-May-11 13:01N 34°35' E 135°27'0 0.0
2018-May-11 12:30N 34°35' E 135°27'0 0.0
2018-May-11 12:00N 34°35' E 135°27'0 0.0
2018-May-11 11:31N 34°35' E 135°27'0 0.0
2018-May-11 11:01N 34°35' E 135°27'0 0.0
2018-May-11 10:30N 34°35' E 135°27'0 0.0
2018-May-11 10:00N 34°35' E 135°27'0 0.0
2018-May-11 09:30N 34°35' E 135°27'0 0.0
2018-May-11 09:00N 34°35' E 135°27'0 0.0
2018-May-11 08:29N 34°35' E 135°27'0 0.0
2018-May-11 08:00N 34°35' E 135°27'0 0.0
2018-May-11 07:30N 34°35' E 135°27'0 0.1
2018-May-11 07:00N 34°35' E 135°27'0 0.0
2018-May-11 06:30N 34°35' E 135°27'0 0.0
2018-May-11 06:00N 34°35' E 135°27'0 0.0
2018-May-11 05:30N 34°35' E 135°27'0 0.0
2018-May-11 05:00N 34°35' E 135°27'0 0.0
2018-May-11 04:30N 34°35' E 135°27'0 0.0
2018-May-11 04:00N 34°35' E 135°27'0 0.0
2018-May-11 03:30N 34°35' E 135°27'0 0.0
2018-May-11 02:58N 34°35' E 135°27'0 0.0
2018-May-11 02:30N 34°35' E 135°27'0 0.0
2018-May-11 02:00N 34°35' E 135°27'0 0.0
2018-May-11 01:30N 34°35' E 135°27'0 0.0
2018-May-11 01:00N 34°35' E 135°27'3 6.7
2018-May-11 00:30N 34°36' E 135°23'510.5
2018-May-11 00:00N 34°33' E 135°18'511.1
2018-May-10 23:31N 34°29' E 135°14'611.2
2018-May-10 23:00N 34°25' E 135°09'611.3
2018-May-10 22:31N 34°20' E 135°06'510.2
2018-May-10 22:00N 34°15' E 135°04'3 6.1
2018-May-10 21:31N 34°15' E 135°07'0 0.0
2018-May-10 21:00N 34°15' E 135°07'0 0.0
2018-May-10 20:30N 34°15' E 135°07'0 0.0
2018-May-10 20:00N 34°15' E 135°07'0 0.0
2018-May-10 19:30N 34°15' E 135°07'0 0.0
2018-May-10 19:01N 34°15' E 135°07'0 0.0
2018-May-10 18:31N 34°15' E 135°07'0 0.0
2018-May-10 18:00N 34°15' E 135°07'0 0.0
2018-May-10 17:30N 34°15' E 135°07'0 0.0
2018-May-10 17:00N 34°15' E 135°07'0 0.0
2018-May-10 16:30N 34°15' E 135°07'0 0.0
2018-May-10 16:00N 34°15' E 135°07'0 0.0
2018-May-10 15:30N 34°15' E 135°07'0 0.0
2018-May-10 15:00N 34°15' E 135°07'0 0.0
2018-May-10 14:31N 34°15' E 135°07'0 0.0
2018-May-10 14:00N 34°15' E 135°07'0 0.0
2018-May-10 13:31N 34°15' E 135°07'0 0.0
2018-May-10 13:00N 34°15' E 135°07'0 0.0
2018-May-10 12:30N 34°15' E 135°07'0 0.0
2018-May-10 12:00N 34°15' E 135°07'0 0.0
2018-May-10 11:31N 34°15' E 135°07'1 2.2
2018-May-10 11:00N 34°14' E 135°06'3 5.5
2018-May-10 10:30N 34°13' E 135°09'0 0.0
2018-May-10 10:00N 34°13' E 135°09'0 0.0
2018-May-10 09:31N 34°13' E 135°09'0 0.0
2018-May-10 09:00N 34°13' E 135°09'0 0.0
2018-May-10 08:30N 34°13' E 135°09'0 0.0
2018-May-10 08:00N 34°13' E 135°09'0 0.0
2018-May-10 07:31N 34°13' E 135°09'0 0.0
2018-May-10 07:00N 34°13' E 135°09'0 0.0
2018-May-10 06:30N 34°13' E 135°09'0 0.0
2018-May-10 06:00N 34°13' E 135°09'0 0.0
2018-May-10 05:31N 34°13' E 135°09'0 0.0
2018-May-10 05:01N 34°13' E 135°09'0 0.0
2018-May-10 04:30N 34°13' E 135°09'0 0.0
2018-May-10 04:01N 34°13' E 135°09'0 0.0
2018-May-10 03:31N 34°13' E 135°09'0 0.0
2018-May-10 03:01N 34°13' E 135°09'0 0.0
2018-May-10 02:30N 34°13' E 135°09'0 0.0
2018-May-10 02:00N 34°13' E 135°09'0 0.0
2018-May-10 01:31N 34°13' E 135°09'0 0.0
2018-May-10 01:00N 34°13' E 135°09'0 0.0
2018-May-10 00:31N 34°13' E 135°09'0 0.0
2018-May-10 00:01N 34°13' E 135°09'0 0.0
2018-May-09 23:30N 34°13' E 135°09'0 0.0
2018-May-09 22:59N 34°13' E 135°09'0 0.0
2018-May-09 22:30N 34°13' E 135°09'0 0.0
2018-May-09 22:01N 34°13' E 135°09'0 0.0
2018-May-09 21:31N 34°13' E 135°09'0 0.0
2018-May-09 21:00N 34°13' E 135°09'0 0.0
2018-May-09 20:31N 34°13' E 135°09'0 0.0
2018-May-09 20:00N 34°13' E 135°09'0 0.0
2018-May-09 19:30N 34°13' E 135°09'0 0.0
2018-May-09 19:00N 34°13' E 135°09'0 0.0
2018-May-09 18:31N 34°13' E 135°09'0 0.0
2018-May-09 18:00N 34°13' E 135°09'0 0.0
2018-May-09 17:30N 34°13' E 135°09'0 0.0
2018-May-09 17:01N 34°13' E 135°09'0 0.0
2018-May-09 16:30N 34°13' E 135°09'0 0.0
2018-May-09 16:00N 34°13' E 135°09'0 0.0
2018-May-09 15:30N 34°13' E 135°09'0 0.0
2018-May-09 15:00N 34°13' E 135°09'0 0.0
2018-May-09 14:31N 34°13' E 135°09'0 0.0
2018-May-09 14:00N 34°13' E 135°09'0 0.0
2018-May-09 13:30N 34°13' E 135°09'0 0.0
2018-May-09 13:00N 34°13' E 135°09'0 0.0
2018-May-09 12:31N 34°13' E 135°09'0 0.0
2018-May-09 12:00N 34°13' E 135°09'0 0.0
2018-May-09 11:31N 34°13' E 135°09'0 0.0
2018-May-09 11:00N 34°13' E 135°09'0 0.0
2018-May-09 10:31N 34°13' E 135°09'0 0.0
2018-May-09 10:01N 34°13' E 135°09'0 0.0
2018-May-09 09:29N 34°13' E 135°09'0 0.0
2018-May-09 09:00N 34°13' E 135°09'0 0.0
2018-May-09 08:29N 34°13' E 135°09'0 0.0
2018-May-09 08:00N 34°13' E 135°09'0 0.0
2018-May-09 07:30N 34°13' E 135°09'0 0.0
2018-May-09 07:00N 34°13' E 135°09'0 0.0
2018-May-09 06:30N 34°13' E 135°09'0 0.0
2018-May-09 06:00N 34°13' E 135°09'0 0.0
2018-May-09 05:30N 34°13' E 135°09'0 0.0
2018-May-09 05:00N 34°13' E 135°09'0 0.0
2018-May-09 04:30N 34°13' E 135°09'0 0.0
2018-May-09 04:00N 34°13' E 135°09'0 0.0
2018-May-09 03:31N 34°13' E 135°09'0 0.0
2018-May-09 03:00N 34°13' E 135°09'0 0.0
2018-May-09 02:29N 34°13' E 135°09'0 0.0
2018-May-09 02:00N 34°13' E 135°09'1 2.9
2018-May-09 01:30N 34°13' E 135°07'4 8.6
2018-May-09 01:01N 34°16' E 135°03'611.6
2018-May-09 00:31N 34°22' E 135°03'612.0
2018-May-09 00:00N 34°28' E 135°03'612.8
2018-May-08 23:30N 34°34' E 135°03'612.0
2018-May-08 23:00N 34°37' E 134°57'713.3
2018-May-08 22:30N 34°40' E 134°49'712.8
2018-May-08 22:00N 34°43' E 134°42'510.7
2018-May-08 21:30N 34°47' E 134°38'0 0.2
2018-May-08 19:33N 34°47' E 134°38'0 0.0
2018-May-08 19:29N 34°47' E 134°38'0 0.0
2018-May-08 18:57N 34°47' E 134°38'0 0.0
2018-May-08 18:30N 34°47' E 134°38'0 0.0
2018-May-08 18:00N 34°47' E 134°38'0 0.0
2018-May-08 17:23N 34°47' E 134°38'0 0.0
2018-May-08 16:58N 34°47' E 134°38'0 0.0
2018-May-08 16:29N 34°47' E 134°38'0 0.0
2018-May-08 15:57N 34°47' E 134°38'0 0.0
2018-May-08 15:00N 34°47' E 134°38'0 0.0
2018-May-08 13:22N 34°47' E 134°38'0 0.0
2018-May-08 13:00N 34°47' E 134°38'0 0.0
2018-May-08 12:27N 34°47' E 134°38'0 0.0
2018-May-08 11:59N 34°47' E 134°38'0 0.0
2018-May-08 11:12N 34°47' E 134°38'1 4.6
2018-May-08 10:59N 34°46' E 134°38'611.6
2018-May-08 10:29N 34°40' E 134°38'511.2
2018-May-08 10:00N 34°35' E 134°35'611.7
2018-May-08 09:29N 34°30' E 134°30'611.4
2018-May-08 09:00N 34°26' E 134°27'1211.0
2018-May-08 07:54N 34°24' E 134°12'7510.1
2018-May-08 00:29N 34°01' E 132°46'510.2
2018-May-08 00:00N 33°57' E 132°43'610.1
2018-May-07 23:27N 33°54' E 132°38'3910.4
2018-May-07 19:43N 33°30' E 132°01'211.1
2018-May-07 19:30N 33°28' E 131°58'611.4
2018-May-07 18:59N 33°25' E 131°53'611.3
2018-May-07 18:27N 33°21' E 131°47'511.3
2018-May-07 18:00N 33°18' E 131°42'3 5.7
2018-May-07 17:30N 33°16' E 131°40'0 0.0
2018-May-07 17:00N 33°16' E 131°40'0 0.0
2018-May-07 16:30N 33°16' E 131°40'0 0.0
2018-May-07 15:58N 33°16' E 131°40'0 0.0
2018-May-07 15:30N 33°16' E 131°40'0 0.0
2018-May-07 15:00N 33°16' E 131°40'0 0.0
2018-May-07 14:30N 33°16' E 131°40'0 0.0
2018-May-07 13:59N 33°16' E 131°40'0 0.0
2018-May-07 13:30N 33°16' E 131°40'0 0.0
2018-May-07 12:57N 33°16' E 131°40'0 0.0
2018-May-07 12:30N 33°16' E 131°40'0 0.0
2018-May-07 12:00N 33°16' E 131°40'0 0.0
2018-May-07 11:30N 33°16' E 131°40'0 0.0
2018-May-07 11:00N 33°16' E 131°40'0 0.0
2018-May-07 10:30N 33°16' E 131°40'0 0.0
2018-May-07 10:00N 33°16' E 131°40'0 0.0
2018-May-07 09:30N 33°16' E 131°40'0 0.0
2018-May-07 09:00N 33°16' E 131°40'0 0.0
2018-May-07 08:30N 33°16' E 131°40'0 0.0
2018-May-07 08:00N 33°16' E 131°40'0 0.0
2018-May-07 07:30N 33°16' E 131°40'0 0.0
2018-May-07 07:00N 33°16' E 131°40'0 0.0
2018-May-07 06:29N 33°16' E 131°40'0 0.0
2018-May-07 06:00N 33°16' E 131°40'0 0.0
2018-May-07 05:29N 33°16' E 131°40'0 0.0
2018-May-07 05:00N 33°16' E 131°40'0 0.0
2018-May-07 04:30N 33°16' E 131°40'0 0.0
2018-May-07 03:58N 33°16' E 131°40'0 0.0
2018-May-07 03:30N 33°16' E 131°40'0 0.0
2018-May-07 02:58N 33°16' E 131°40'0 0.0
2018-May-07 02:30N 33°16' E 131°40'5 8.4
2018-May-07 01:52N 33°21' E 131°43'512.5
2018-May-07 01:27N 33°25' E 131°46'511.8
2018-May-07 01:00N 33°31' E 131°47'611.2
2018-May-07 00:30N 33°36' E 131°45'611.7
2018-May-06 23:59N 33°41' E 131°41'611.9
2018-May-06 23:30N 33°43' E 131°34'612.0
2018-May-06 23:00N 33°45' E 131°28'612.4
2018-May-06 22:30N 33°48' E 131°21'612.0
2018-May-06 22:00N 33°50' E 131°14'611.8
2018-May-06 21:30N 33°53' E 131°08'611.8
2018-May-06 21:00N 33°57' E 131°03'4 8.9
2018-May-06 20:30N 33°57' E 130°57'4 8.2
2018-May-06 20:00N 33°55' E 130°53'2 3.9
2018-May-06 19:30N 33°55' E 130°51'0 0.0
2018-May-06 19:00N 33°55' E 130°51'0 0.0
2018-May-06 18:30N 33°55' E 130°51'0 0.0
2018-May-06 18:00N 33°55' E 130°51'0 0.0
2018-May-06 17:30N 33°55' E 130°51'0 0.0
2018-May-06 17:00N 33°55' E 130°51'0 0.0
2018-May-06 16:30N 33°55' E 130°51'0 0.0
2018-May-06 16:00N 33°55' E 130°51'0 0.0
2018-May-06 15:30N 33°55' E 130°51'0 0.0
2018-May-06 15:00N 33°55' E 130°51'0 0.0
2018-May-06 14:30N 33°55' E 130°51'0 0.0
2018-May-06 14:00N 33°55' E 130°51'0 0.0
2018-May-06 13:30N 33°55' E 130°51'2 3.5
2018-May-06 13:00N 33°56' E 130°53'0 0.7
2018-May-06 12:30N 33°56' E 130°54'0 0.0
2018-May-06 12:00N 33°56' E 130°54'0 0.0
2018-May-06 11:30N 33°56' E 130°54'0 0.0
2018-May-06 11:00N 33°56' E 130°54'0 0.0
2018-May-06 10:30N 33°56' E 130°54'0 0.0
2018-May-06 10:00N 33°56' E 130°54'0 0.0
2018-May-06 09:30N 33°56' E 130°54'0 0.0
2018-May-06 09:00N 33°56' E 130°54'0 0.0
2018-May-06 08:30N 33°56' E 130°54'0 0.0
2018-May-06 08:00N 33°56' E 130°54'0 0.1
2018-May-06 07:30N 33°56' E 130°53'0 0.1
2018-May-06 07:00N 33°56' E 130°53'0 0.1
2018-May-06 06:30N 33°56' E 130°53'0 0.0
2018-May-06 06:00N 33°56' E 130°53'0 0.0
2018-May-06 05:30N 33°56' E 130°53'0 0.0
2018-May-06 05:00N 33°56' E 130°53'0 0.1
2018-May-06 04:30N 33°56' E 130°53'0 0.0
2018-May-06 04:00N 33°56' E 130°53'0 0.0
2018-May-06 03:30N 33°56' E 130°53'0 0.0
2018-May-06 02:59N 33°56' E 130°53'2 4.7
2018-May-06 02:30N 33°56' E 130°56'510.2
2018-May-06 02:00N 33°58' E 131°02'612.2
2018-May-06 01:30N 33°55' E 131°08'612.0
2018-May-06 01:00N 33°52' E 131°14'612.1
2018-May-06 00:30N 33°51' E 131°22'612.2
2018-May-06 00:00N 33°50' E 131°29'612.2
2018-May-05 23:30N 33°49' E 131°36'612.2
2018-May-05 23:00N 33°48' E 131°43'1411.9
2018-May-05 21:47N 33°46' E 132°00'312.4
2018-May-05 21:30N 33°46' E 132°04'612.7
2018-May-05 21:00N 33°50' E 132°11'712.3
2018-May-05 20:28N 33°50' E 132°19'1012.5
2018-May-05 19:41N 33°52' E 132°31'212.5
2018-May-05 19:30N 33°53' E 132°33'712.3
2018-May-05 18:58N 33°56' E 132°40'511.7
2018-May-05 18:30N 34°00' E 132°45'  

Dump ship's entire track history